Quick Links (Output Below):   Max & Min Temps   /   Climate Reports   /   Zone Forecasts
River Forecasts   /   Forestry Forecasts   /   Aviation Forecasts   /   Radars   /   Features

Terminal Aerodrome Forecast (Pine Bluff)

Pick a Site:
Arkadelphia | El Dorado | Fayetteville | Fort Smith | Harrison | Highfill | Hot Springs | Jonesboro
Little Rock | Monticello | Mountain Home | Pine Bluff | Texarkana
 Forecast 

KPBF 180540Z 1806/1906 VRB02KT P6SM VCSH BKN100 BKN250
     FM181000 02004KT P6SM BKN100
     FM181500 03007KT P6SM SCT100
     FM181800 05009KT P6SM SCT050 SCT100
     FM190000 06003KT P6SM SCT250=


 Latest METARs (Observations) 
How to Decode METARs
05Z KPBF 180453Z AUTO 00000KT 10SM CLR 12/09 A3021 RMK AO2 SLP227
         T01220089
         
04Z KPBF 180353Z AUTO 00000KT 10SM CLR 14/08 A3020 RMK AO2 SLP227
         T01390083
         
03Z KPBF 180253Z AUTO 00000KT 10SM SCT110 14/09 A3022 RMK AO2 SLP231
         T01390094 51010
         
02Z KPBF 180153Z AUTO 00000KT 10SM FEW110 15/10 A3021 RMK AO2 SLP227
         T01500100
         
01Z KPBF 180053Z AUTO 11005KT 10SM OVC110 16/09 A3020 RMK AO2 SLP226
         T01560089
         
00Z KPBF 172353Z AUTO 11007KT 10SM BKN100 18/08 A3019 RMK AO2 SLP221
         T01780083 10200 20178 55000
         
***** Today's Observations (Above) *****


23Z KPBF 172253Z AUTO 12006KT 10SM CLR 19/08 A3019 RMK AO2 SLP221
         T01890083
         
22Z KPBF 172153Z AUTO 14010KT 10SM CLR 19/08 A3019 RMK AO2 SLP221
         T01890083
         
21Z KPBF 172053Z AUTO 12009KT 10SM FEW100 19/08 A3019 RMK AO2 SLP222
         T01890083 58015
         
20Z KPBF 171953Z AUTO 13008KT 10SM BKN100 19/07 A3020 RMK AO2 SLP227
         T01940067
         
***** Yesterday's Observations (Above) *****


Back to Main Page
http://www.srh.noaa.gov/lzk/qfcst.php

USA.gov is the U.S. government's official web portal to all federal, state and local government web resources and services.